Time;durP1;ratioP1;P1;durP2;ratioP2;P2;SDS_P1;SDS_P2;PMS_P1;PMS_P2;Temp;Humidity;BMP_temperature;BMP_pressure;BME280_temperature;BME280_humidity;BME280_pressure;Samples;Min_cycle;Max_cycle;Signal;HPM_P1;HPM_P2
2023/09/17 00:02:14;;;;;;;;;;;22.80;60.10;;;;;;5014798;28;20021;-67
2023/09/17 00:04:40;;;;;;;;;;;22.80;60.00;;;;;;5010951;28;19957;-68
2023/09/17 00:07:05;;;;;;;;;;;22.80;60.00;;;;;;5020653;28;19913;-67
2023/09/17 00:09:31;;;;;;;;;;;22.90;60.00;;;;;;5032103;28;19939;-68
2023/09/17 00:11:56;;;;;;;;;;;22.90;59.90;;;;;;5034314;28;19924;-67
2023/09/17 00:14:22;;;;;;;;;;;22.90;59.90;;;;;;5034655;28;19956;-67
2023/09/17 00:16:47;;;;;;;;;;;22.90;59.90;;;;;;5034157;28;19920;-67
2023/09/17 00:19:13;;;;;;;;;;;22.90;59.90;;;;;;5034550;28;20322;-67
2023/09/17 00:21:39;;;;;;;;;;;22.90;60.00;;;;;;5032709;28;19917;-67
2023/09/17 00:24:04;;;;;;;;;;;22.90;60.00;;;;;;5023031;28;20016;-68
2023/09/17 00:26:30;;;;;;;;;;;22.90;60.00;;;;;;5014197;28;20023;-69
2023/09/17 00:28:55;;;;;;;;;;;22.90;60.30;;;;;;5014589;28;20463;-68
2023/09/17 00:31:21;;;;;;;;;;;22.80;60.40;;;;;;5014249;28;19921;-66
2023/09/17 00:33:46;;;;;;;;;;;22.80;60.50;;;;;;5014205;28;19924;-66
2023/09/17 00:36:12;;;;;;;;;;;22.80;60.40;;;;;;5013827;28;19918;-66
2023/09/17 00:38:37;;;;;;;;;;;22.80;60.40;;;;;;5015024;28;19914;-66
2023/09/17 00:41:03;;;;;;;;;;;22.80;60.40;;;;;;5014599;28;20268;-67
2023/09/17 00:43:30;;;;;;;;;;;22.80;60.40;;;;;;5014936;28;19918;-66
2023/09/17 00:45:55;;;;;;;;;;;22.80;60.40;;;;;;5013826;28;19928;-67
2023/09/17 00:48:21;;;;;;;;;;;22.70;60.60;;;;;;5012802;28;19917;-67
2023/09/17 00:50:47;;;;;;;;;;;22.80;60.60;;;;;;5014027;28;20292;-66
2023/09/17 00:53:13;;;;;;;;;;;22.70;60.60;;;;;;5014522;28;19914;-67
2023/09/17 00:55:39;;;;;;;;;;;22.70;60.50;;;;;;5014188;28;19921;-67
2023/09/17 00:58:06;;;;;;;;;;;22.70;60.50;;;;;;5014461;28;20341;-67
2023/09/17 01:00:33;;;;;;;;;;;22.70;60.50;;;;;;5024883;28;19924;-66
2023/09/17 01:03:03;;;;;;;;;;;22.70;60.50;;;;;;5033425;28;19913;-66
2023/09/17 01:05:36;;;;;;;;;;;22.70;60.50;;;;;;5033152;28;19913;-66
2023/09/17 01:08:04;;;;;;;;;;;22.70;60.60;;;;;;5033424;28;20360;-66
2023/09/17 01:10:29;;;;;;;;;;;22.70;60.60;;;;;;5033046;28;19917;-66
2023/09/17 01:12:55;;;;;;;;;;;22.70;60.60;;;;;;5033207;28;20193;-66
2023/09/17 01:15:20;;;;;;;;;;;22.70;60.60;;;;;;5032961;28;20245;-66
2023/09/17 01:17:46;;;;;;;;;;;22.70;60.60;;;;;;5033206;28;19913;-66
2023/09/17 01:20:29;;;;;;;;;;;22.70;60.60;;;;;;5032966;28;19921;-67
2023/09/17 01:22:59;;;;;;;;;;;22.70;60.50;;;;;;5033058;28;20253;-66
2023/09/17 01:25:46;;;;;;;;;;;22.70;60.50;;;;;;5032810;28;19913;-67
2023/09/17 01:28:13;;;;;;;;;;;22.70;60.50;;;;;;5031601;28;19917;-67
2023/09/17 01:30:41;;;;;;;;;;;22.70;60.50;;;;;;5033074;28;19913;-66
2023/09/17 01:33:09;;;;;;;;;;;22.60;60.40;;;;;;5032834;28;19984;-67
2023/09/17 01:35:39;;;;;;;;;;;22.50;60.30;;;;;;5032835;28;19964;-67
2023/09/17 01:38:06;;;;;;;;;;;22.50;60.20;;;;;;5031473;28;19917;-67
2023/09/17 01:40:33;;;;;;;;;;;22.50;60.30;;;;;;5032702;28;19917;-66
2023/09/17 01:43:00;;;;;;;;;;;22.40;60.30;;;;;;5032896;28;19917;-66
2023/09/17 01:45:27;;;;;;;;;;;22.30;60.20;;;;;;5026813;28;19995;-68
2023/09/17 01:47:54;;;;;;;;;;;22.30;60.20;;;;;;5012649;28;20004;-66
2023/09/17 01:50:23;;;;;;;;;;;22.20;60.40;;;;;;5011361;28;19917;-66
2023/09/17 01:52:48;;;;;;;;;;;22.20;60.50;;;;;;5012766;28;19945;-66
2023/09/17 01:55:14;;;;;;;;;;;22.10;60.70;;;;;;5012670;28;20303;-66
2023/09/17 01:57:41;;;;;;;;;;;22.00;60.90;;;;;;5012642;28;20383;-67
2023/09/17 02:00:14;;;;;;;;;;;22.00;60.80;;;;;;5019463;28;19928;-67
2023/09/17 02:02:43;;;;;;;;;;;21.90;60.80;;;;;;5032382;28;19917;-66
2023/09/17 02:05:09;;;;;;;;;;;21.90;60.80;;;;;;5032142;28;19913;-68
2023/09/17 02:07:36;;;;;;;;;;;21.80;60.70;;;;;;5032400;28;19967;-67
2023/09/17 02:10:02;;;;;;;;;;;21.80;60.80;;;;;;5032103;28;19913;-67
2023/09/17 02:12:28;;;;;;;;;;;21.70;60.70;;;;;;5032608;28;19913;-67
2023/09/17 02:14:54;;;;;;;;;;;21.70;60.80;;;;;;5032709;28;19913;-67
2023/09/17 02:17:19;;;;;;;;;;;21.70;60.80;;;;;;5033046;28;19950;-66
2023/09/17 02:19:45;;;;;;;;;;;21.60;60.80;;;;;;5032755;28;19917;-67
2023/09/17 02:22:10;;;;;;;;;;;21.50;60.90;;;;;;5032468;28;19909;-67
2023/09/17 02:24:36;;;;;;;;;;;21.50;61.00;;;;;;5032651;28;19913;-67
2023/09/17 02:27:02;;;;;;;;;;;21.40;61.00;;;;;;5031049;28;19909;-67
2023/09/17 02:29:28;;;;;;;;;;;21.30;61.10;;;;;;5032284;28;20016;-67
2023/09/17 02:31:54;;;;;;;;;;;21.30;61.10;;;;;;5032882;28;19952;-67
2023/09/17 02:34:19;;;;;;;;;;;21.30;61.30;;;;;;5032298;28;20426;-67
2023/09/17 02:36:45;;;;;;;;;;;21.20;61.30;;;;;;5032258;28;20007;-66
2023/09/17 02:39:11;;;;;;;;;;;21.20;61.20;;;;;;5032596;28;19917;-68
2023/09/17 02:41:39;;;;;;;;;;;21.20;61.20;;;;;;5032326;28;19975;-68
2023/09/17 02:44:04;;;;;;;;;;;21.20;61.20;;;;;;5032715;28;20379;-68
2023/09/17 02:46:30;;;;;;;;;;;21.10;61.10;;;;;;5017784;28;19917;-68
2023/09/17 02:48:55;;;;;;;;;;;21.10;61.10;;;;;;5012659;28;19936;-68
2023/09/17 02:51:21;;;;;;;;;;;21.10;61.20;;;;;;5012800;28;19978;-68
2023/09/17 02:53:47;;;;;;;;;;;21.10;61.30;;;;;;5012436;28;19952;-68
2023/09/17 02:56:13;;;;;;;;;;;21.10;61.30;;;;;;5012478;28;19913;-67
2023/09/17 02:58:38;;;;;;;;;;;21.00;61.30;;;;;;5012163;28;19920;-68
2023/09/17 03:01:15;;;;;;;;;;;21.00;61.50;;;;;;5031385;28;19920;-68
2023/09/17 03:03:41;;;;;;;;;;;21.00;61.50;;;;;;5036629;28;20355;-68
2023/09/17 03:06:08;;;;;;;;;;;20.90;61.50;;;;;;5036361;28;19920;-66
2023/09/17 03:08:33;;;;;;;;;;;20.90;61.50;;;;;;5036625;28;19920;-66
2023/09/17 03:10:59;;;;;;;;;;;20.80;61.40;;;;;;5036198;28;20334;-66
2023/09/17 03:13:24;;;;;;;;;;;20.80;61.40;;;;;;5036647;28;19955;-68
2023/09/17 03:15:57;;;;;;;;;;;20.70;61.50;;;;;;5036122;28;20383;-66
2023/09/17 03:18:22;;;;;;;;;;;20.70;61.50;;;;;;5036206;28;19917;-67
2023/09/17 03:20:49;;;;;;;;;;;20.70;61.70;;;;;;5036032;28;20292;-68
2023/09/17 03:23:15;;;;;;;;;;;20.70;62.20;;;;;;5036214;28;19913;-68
2023/09/17 03:25:41;;;;;;;;;;;20.70;62.40;;;;;;5034434;28;20348;-68
2023/09/17 03:28:06;;;;;;;;;;;20.70;62.70;;;;;;5036008;28;19913;-68
2023/09/17 03:30:32;;;;;;;;;;;20.70;62.70;;;;;;5036111;28;19979;-69
2023/09/17 03:33:02;;;;;;;;;;;20.70;62.60;;;;;;5035703;28;19917;-68
2023/09/17 03:35:28;;;;;;;;;;;20.70;62.50;;;;;;5036259;28;20000;-68
2023/09/17 03:37:53;;;;;;;;;;;20.80;62.50;;;;;;5034125;28;19975;-69
2023/09/17 03:40:19;;;;;;;;;;;20.80;62.60;;;;;;5035373;28;19921;-69
2023/09/17 03:42:46;;;;;;;;;;;20.90;62.60;;;;;;5036533;28;19913;-68
2023/09/17 03:45:12;;;;;;;;;;;20.90;62.70;;;;;;5031196;28;19924;-66
2023/09/17 03:47:41;;;;;;;;;;;21.00;62.70;;;;;;5015567;28;19964;-66
2023/09/17 03:50:13;;;;;;;;;;;21.00;62.70;;;;;;5015082;28;19976;-67
2023/09/17 03:52:42;;;;;;;;;;;21.00;62.80;;;;;;5015135;28;19921;-66
2023/09/17 03:55:07;;;;;;;;;;;21.00;62.70;;;;;;5014707;28;19913;-67
2023/09/17 03:57:34;;;;;;;;;;;21.10;62.80;;;;;;5015136;28;19914;-67
2023/09/17 04:00:00;;;;;;;;;;;21.10;63.00;;;;;;5021265;28;20012;-67
2023/09/17 04:02:25;;;;;;;;;;;21.10;63.00;;;;;;5034608;28;19971;-66
2023/09/17 04:04:51;;;;;;;;;;;21.10;62.90;;;;;;5034553;28;19913;-67
2023/09/17 04:07:17;;;;;;;;;;;21.20;62.90;;;;;;5034684;28;19917;-67
2023/09/17 04:09:42;;;;;;;;;;;21.20;62.90;;;;;;5034538;28;19917;-67
2023/09/17 04:12:08;;;;;;;;;;;21.20;62.70;;;;;;5033154;28;20430;-66
2023/09/17 04:14:33;;;;;;;;;;;21.30;62.70;;;;;;5034735;28;19936;-67
2023/09/17 04:17:02;;;;;;;;;;;21.30;62.60;;;;;;5034373;28;19913;-66
2023/09/17 04:19:28;;;;;;;;;;;21.20;62.60;;;;;;5034279;28;20467;-67
2023/09/17 04:21:54;;;;;;;;;;;21.30;62.70;;;;;;5034370;28;20284;-67
2023/09/17 04:24:19;;;;;;;;;;;21.20;62.80;;;;;;5034793;28;19917;-68
2023/09/17 04:26:45;;;;;;;;;;;21.20;62.90;;;;;;5034228;28;19913;-67
2023/09/17 04:29:12;;;;;;;;;;;21.20;62.90;;;;;;5034792;28;20004;-68
2023/09/17 04:31:37;;;;;;;;;;;21.30;62.80;;;;;;5034275;28;19914;-68
2023/09/17 04:34:03;;;;;;;;;;;21.30;62.80;;;;;;5033809;28;19925;-68
2023/09/17 04:36:28;;;;;;;;;;;21.30;62.90;;;;;;5034046;28;20003;-67
2023/09/17 04:38:54;;;;;;;;;;;21.30;63.10;;;;;;5033983;28;19939;-68
2023/09/17 04:41:19;;;;;;;;;;;21.30;63.10;;;;;;5032513;28;19917;-68
2023/09/17 04:43:45;;;;;;;;;;;21.30;62.90;;;;;;5034045;28;19913;-68
2023/09/17 04:46:10;;;;;;;;;;;21.30;62.70;;;;;;5022000;28;19914;-68
2023/09/17 04:48:36;;;;;;;;;;;21.30;62.60;;;;;;5012699;28;19919;-68
2023/09/17 04:51:01;;;;;;;;;;;21.30;62.50;;;;;;5013627;28;19921;-68
2023/09/17 04:53:27;;;;;;;;;;;21.20;62.50;;;;;;5013839;28;20024;-67
2023/09/17 04:55:53;;;;;;;;;;;21.10;62.50;;;;;;5012395;28;19929;-68
2023/09/17 04:58:19;;;;;;;;;;;21.10;62.60;;;;;;5013965;28;19914;-68
2023/09/17 05:00:44;;;;;;;;;;;21.00;62.60;;;;;;5026117;28;19924;-68
2023/09/17 05:03:11;;;;;;;;;;;21.00;62.70;;;;;;5033549;28;20295;-68
2023/09/17 05:05:37;;;;;;;;;;;20.90;62.80;;;;;;5033303;28;19967;-68
2023/09/17 05:08:03;;;;;;;;;;;20.90;62.80;;;;;;5033580;28;20319;-67
2023/09/17 05:10:28;;;;;;;;;;;20.80;63.00;;;;;;5033244;28;19913;-68
2023/09/17 05:12:54;;;;;;;;;;;20.80;63.00;;;;;;5033254;28;19940;-68
2023/09/17 05:15:21;;;;;;;;;;;20.80;63.00;;;;;;5033058;28;19917;-68
2023/09/17 05:17:46;;;;;;;;;;;20.80;62.90;;;;;;5033483;28;20004;-68
2023/09/17 05:20:12;;;;;;;;;;;20.80;62.90;;;;;;5032903;28;20007;-67
2023/09/17 05:22:37;;;;;;;;;;;20.80;62.90;;;;;;5032471;28;19979;-68
2023/09/17 05:25:03;;;;;;;;;;;20.80;62.90;;;;;;5033149;28;19917;-68
2023/09/17 05:27:29;;;;;;;;;;;20.80;63.10;;;;;;5031763;28;19914;-68
2023/09/17 05:29:54;;;;;;;;;;;20.80;63.30;;;;;;5032701;28;19913;-68
2023/09/17 05:32:20;;;;;;;;;;;20.90;63.40;;;;;;5032884;28;19913;-68
2023/09/17 05:34:45;;;;;;;;;;;20.90;63.50;;;;;;5032801;28;19928;-68
2023/09/17 05:37:11;;;;;;;;;;;21.00;63.40;;;;;;5032707;28;20436;-67
2023/09/17 05:39:36;;;;;;;;;;;21.10;63.50;;;;;;5032534;28;19921;-68
2023/09/17 05:42:02;;;;;;;;;;;21.20;63.80;;;;;;5032727;28;19909;-68
2023/09/17 05:44:27;;;;;;;;;;;21.30;63.80;;;;;;5032703;28;20304;-68
2023/09/17 05:46:52;;;;;;;;;;;21.50;63.70;;;;;;5015160;28;19916;-68
2023/09/17 05:49:18;;;;;;;;;;;21.50;63.70;;;;;;5013206;28;19910;-68
2023/09/17 05:51:44;;;;;;;;;;;21.60;63.80;;;;;;5013120;28;19918;-68
2023/09/17 05:54:10;;;;;;;;;;;21.70;63.90;;;;;;5013065;28;20419;-68
2023/09/17 05:56:35;;;;;;;;;;;21.80;64.20;;;;;;5011387;28;19921;-68
2023/09/17 05:59:00;;;;;;;;;;;22.00;64.50;;;;;;5012944;28;20361;-69
2023/09/17 06:01:26;;;;;;;;;;;22.30;65.30;;;;;;5028852;28;19917;-69
2023/09/17 06:03:53;;;;;;;;;;;22.80;65.70;;;;;;5012616;28;21317;-69
2023/09/17 06:06:19;;;;;;;;;;;23.20;65.80;;;;;;5012941;28;20067;-69
2023/09/17 06:08:44;;;;;;;;;;;23.50;64.80;;;;;;5013241;28;20428;-69
2023/09/17 06:11:11;;;;;;;;;;;23.70;64.00;;;;;;5013305;28;19963;-70
2023/09/17 06:13:36;;;;;;;;;;;23.80;63.60;;;;;;5013584;28;19917;-70
2023/09/17 06:16:02;;;;;;;;;;;23.80;63.20;;;;;;5013143;28;20363;-70
2023/09/17 06:18:29;;;;;;;;;;;24.00;62.80;;;;;;5013941;28;19988;-69
2023/09/17 06:20:54;;;;;;;;;;;24.00;62.50;;;;;;5013552;28;19913;-69
2023/09/17 06:23:20;;;;;;;;;;;24.10;62.30;;;;;;5010455;28;20280;-69
2023/09/17 06:25:46;;;;;;;;;;;24.10;62.10;;;;;;5013377;28;19917;-69
2023/09/17 06:28:11;;;;;;;;;;;24.10;62.00;;;;;;5006584;28;20377;-68
2023/09/17 06:30:37;;;;;;;;;;;24.00;63.40;;;;;;5011726;28;19916;-69
2023/09/17 06:33:03;;;;;;;;;;;23.60;64.30;;;;;;5011386;28;20056;-68
2023/09/17 06:35:29;;;;;;;;;;;23.20;65.00;;;;;;5011026;28;19992;-68
2023/09/17 06:37:54;;;;;;;;;;;23.00;66.20;;;;;;5011230;28;20373;-69
2023/09/17 06:40:20;;;;;;;;;;;22.80;67.10;;;;;;5009102;28;19913;-68
2023/09/17 06:42:45;;;;;;;;;;;22.70;67.90;;;;;;5011794;28;20022;-68
2023/09/17 06:45:11;;;;;;;;;;;22.70;68.40;;;;;;5011917;28;19971;-67
2023/09/17 06:47:36;;;;;;;;;;;22.60;68.80;;;;;;5012077;28;19917;-68
2023/09/17 06:50:02;;;;;;;;;;;22.60;68.90;;;;;;5008437;28;19910;-67
2023/09/17 06:52:28;;;;;;;;;;;22.60;69.20;;;;;;5012455;28;20372;-68
2023/09/17 06:54:53;;;;;;;;;;;22.60;69.40;;;;;;5012256;28;20262;-69
2023/09/17 06:57:19;;;;;;;;;;;22.50;69.60;;;;;;5012531;28;19922;-68
2023/09/17 06:59:46;;;;;;;;;;;22.50;70.00;;;;;;5007716;28;19913;-67
2023/09/17 07:02:11;;;;;;;;;;;22.60;70.30;;;;;;5011406;28;19914;-69
2023/09/17 07:04:37;;;;;;;;;;;22.60;70.40;;;;;;5011686;28;19984;-67
2023/09/17 07:07:02;;;;;;;;;;;22.60;70.30;;;;;;5011602;28;20346;-68
2023/09/17 07:09:28;;;;;;;;;;;22.70;70.60;;;;;;5007857;28;19932;-66
2023/09/17 07:11:54;;;;;;;;;;;22.70;70.80;;;;;;5011787;28;19967;-68
2023/09/17 07:14:19;;;;;;;;;;;22.80;70.60;;;;;;5012229;28;20352;-67
2023/09/17 07:16:45;;;;;;;;;;;22.80;71.00;;;;;;5011541;28;19932;-68
2023/09/17 07:19:10;;;;;;;;;;;23.00;71.10;;;;;;5008786;28;19928;-67
2023/09/17 07:21:36;;;;;;;;;;;23.10;71.30;;;;;;5012552;28;20000;-67
2023/09/17 07:24:01;;;;;;;;;;;23.30;71.70;;;;;;5010882;28;20365;-66
2023/09/17 07:26:28;;;;;;;;;;;23.50;71.90;;;;;;5011531;28;19916;-67
2023/09/17 07:28:53;;;;;;;;;;;23.70;71.90;;;;;;5007338;28;19921;-69
2023/09/17 07:31:19;;;;;;;;;;;23.90;71.90;;;;;;5006888;28;20008;-66
2023/09/17 07:33:44;;;;;;;;;;;24.10;71.90;;;;;;5010480;28;19972;-67
2023/09/17 07:36:11;;;;;;;;;;;24.20;71.70;;;;;;5011590;28;20008;-67
2023/09/17 07:38:36;;;;;;;;;;;24.30;71.70;;;;;;5009272;28;19940;-67
2023/09/17 07:41:02;;;;;;;;;;;24.50;71.50;;;;;;5010091;28;19913;-71
2023/09/17 07:43:28;;;;;;;;;;;24.50;71.30;;;;;;5011193;28;19918;-72
2023/09/17 07:45:53;;;;;;;;;;;24.60;71.20;;;;;;5011456;28;19909;-71
2023/09/17 07:48:20;;;;;;;;;;;24.70;71.20;;;;;;5010316;28;19971;-72
2023/09/17 07:50:54;;;;;;;;;;;24.80;71.30;;;;;;5015058;28;19909;-73
2023/09/17 07:53:20;;;;;;;;;;;24.80;71.20;;;;;;5015118;28;19985;-72
2023/09/17 07:55:45;;;;;;;;;;;24.80;70.70;;;;;;5014754;28;19913;-72
2023/09/17 07:58:10;;;;;;;;;;;24.80;70.50;;;;;;5008983;28;19917;-73
2023/09/17 08:00:36;;;;;;;;;;;24.70;70.50;;;;;;5013407;28;19913;-72
2023/09/17 08:03:02;;;;;;;;;;;24.50;70.40;;;;;;5014569;28;19924;-68
2023/09/17 08:05:27;;;;;;;;;;;24.40;70.20;;;;;;5014455;28;19917;-68
2023/09/17 08:07:53;;;;;;;;;;;24.20;70.10;;;;;;5014530;28;19918;-68
2023/09/17 08:10:18;;;;;;;;;;;24.10;70.20;;;;;;5008871;28;20443;-67
2023/09/17 08:12:44;;;;;;;;;;;24.00;70.30;;;;;;5014259;28;19917;-70
2023/09/17 08:15:09;;;;;;;;;;;23.90;70.20;;;;;;5014116;28;19914;-70
2023/09/17 08:17:35;;;;;;;;;;;23.70;70.20;;;;;;5014062;28;19923;-68
2023/09/17 08:20:00;;;;;;;;;;;23.50;70.80;;;;;;5008345;28;20351;-68
2023/09/17 08:22:27;;;;;;;;;;;23.40;71.40;;;;;;5012850;28;20258;-68
2023/09/17 08:24:52;;;;;;;;;;;23.40;71.70;;;;;;5014206;28;19914;-68
2023/09/17 08:27:18;;;;;;;;;;;23.40;72.10;;;;;;5013834;28;19917;-68
2023/09/17 08:29:44;;;;;;;;;;;23.40;72.30;;;;;;5008178;28;19913;-68
2023/09/17 08:32:11;;;;;;;;;;;23.40;72.40;;;;;;5013196;28;19913;-68
2023/09/17 08:34:36;;;;;;;;;;;23.50;72.70;;;;;;5013823;28;19917;-67
2023/09/17 08:37:04;;;;;;;;;;;23.50;73.10;;;;;;5013914;28;20288;-66
2023/09/17 08:39:30;;;;;;;;;;;23.70;73.30;;;;;;5013941;28;20388;-67
2023/09/17 08:41:58;;;;;;;;;;;23.70;73.10;;;;;;5014104;28;19917;-67
2023/09/17 08:44:23;;;;;;;;;;;23.80;72.70;;;;;;5013821;28;19928;-69
2023/09/17 08:46:51;;;;;;;;;;;23.80;72.60;;;;;;5013622;28;19909;-71
2023/09/17 08:49:17;;;;;;;;;;;23.80;72.70;;;;;;5014217;28;19924;-69
2023/09/17 08:51:43;;;;;;;;;;;23.80;73.00;;;;;;5013745;28;20360;-68
2023/09/17 08:54:20;;;;;;;;;;;23.90;73.80;;;;;;5014064;28;19917;-67
2023/09/17 08:56:47;;;;;;;;;;;24.20;74.70;;;;;;5012996;28;19916;-68
2023/09/17 08:59:15;;;;;;;;;;;24.60;75.20;;;;;;5013872;28;20269;-68
2023/09/17 09:01:42;;;;;;;;;;;25.20;75.40;;;;;;5008881;28;19913;-68
2023/09/17 09:04:08;;;;;;;;;;;25.50;74.40;;;;;;4994329;28;20246;-68
2023/09/17 09:06:34;;;;;;;;;;;25.80;74.00;;;;;;4994017;28;19910;-70
2023/09/17 09:09:00;;;;;;;;;;;26.10;73.80;;;;;;5000168;28;19925;-68
2023/09/17 09:11:26;;;;;;;;;;;26.30;73.50;;;;;;5013426;28;19956;-73
2023/09/17 09:13:53;;;;;;;;;;;26.50;72.50;;;;;;5013512;28;19942;-73
2023/09/17 09:16:19;;;;;;;;;;;26.60;72.60;;;;;;5014217;28;20364;-74
2023/09/17 09:18:45;;;;;;;;;;;26.70;72.50;;;;;;5009826;28;19918;-74
2023/09/17 09:21:14;;;;;;;;;;;26.90;72.60;;;;;;5013798;28;20010;-74
2023/09/17 09:23:39;;;;;;;;;;;27.10;72.80;;;;;;5014042;28;19918;-74
2023/09/17 09:26:06;;;;;;;;;;;27.40;72.80;;;;;;5015317;28;20364;-73
2023/09/17 09:28:31;;;;;;;;;;;27.60;72.40;;;;;;5009435;28;20445;-75
2023/09/17 09:30:57;;;;;;;;;;;27.80;72.40;;;;;;5013187;28;20007;-75
2023/09/17 09:33:23;;;;;;;;;;;27.90;72.30;;;;;;5013222;28;19976;-75
2023/09/17 09:35:48;;;;;;;;;;;28.10;72.40;;;;;;5012978;28;19937;-75
2023/09/17 09:38:15;;;;;;;;;;;28.30;72.80;;;;;;5009910;28;19991;-72
2023/09/17 09:40:43;;;;;;;;;;;28.70;73.30;;;;;;5011423;28;19924;-73
2023/09/17 09:43:16;;;;;;;;;;;29.20;73.80;;;;;;5012835;28;19921;-74
2023/09/17 09:45:42;;;;;;;;;;;29.70;73.10;;;;;;5013003;28;20379;-73
2023/09/17 09:48:12;;;;;;;;;;;29.80;71.30;;;;;;5009886;28;20004;-73
2023/09/17 09:50:38;;;;;;;;;;;29.90;71.60;;;;;;5011313;28;19959;-73
2023/09/17 09:53:03;;;;;;;;;;;30.20;71.20;;;;;;5013124;28;20373;-74
2023/09/17 09:55:29;;;;;;;;;;;30.30;70.60;;;;;;5012890;28;20328;-73
2023/09/17 09:57:55;;;;;;;;;;;30.30;70.50;;;;;;5012563;28;19917;-72
2023/09/17 10:00:26;;;;;;;;;;;30.30;71.30;;;;;;5008790;28;19987;-73
2023/09/17 10:02:55;;;;;;;;;;;30.60;72.00;;;;;;5012518;28;19936;-67
2023/09/17 10:05:33;;;;;;;;;;;31.00;72.10;;;;;;5012327;28;19917;-69
2023/09/17 10:07:59;;;;;;;;;;;31.30;72.30;;;;;;5009819;28;20361;-68
2023/09/17 10:10:24;;;;;;;;;;;31.50;71.80;;;;;;5008875;28;19913;-72
2023/09/17 10:12:53;;;;;;;;;;;31.70;71.30;;;;;;5013263;28;19924;-72
2023/09/17 10:15:18;;;;;;;;;;;32.00;71.00;;;;;;5012800;28;20263;-72
2023/09/17 10:17:45;;;;;;;;;;;32.30;71.00;;;;;;5011033;28;19920;-72
2023/09/17 10:20:11;;;;;;;;;;;32.70;70.50;;;;;;5008815;28;19945;-71
2023/09/17 10:22:38;;;;;;;;;;;32.90;69.70;;;;;;5012825;28;19917;-68
2023/09/17 10:25:04;;;;;;;;;;;33.00;68.60;;;;;;5011609;28;19910;-68
2023/09/17 10:27:30;;;;;;;;;;;33.10;68.30;;;;;;5010447;28;19979;-68
2023/09/17 10:29:56;;;;;;;;;;;33.10;68.10;;;;;;5005868;28;20364;-68
2023/09/17 10:32:22;;;;;;;;;;;33.30;68.50;;;;;;5012000;28;19975;-67
2023/09/17 10:34:49;;;;;;;;;;;33.40;68.20;;;;;;5011026;28;19917;-68
2023/09/17 10:37:16;;;;;;;;;;;33.70;68.10;;;;;;5008540;28;19913;-68
2023/09/17 10:39:42;;;;;;;;;;;33.80;67.40;;;;;;5004403;28;19918;-69
2023/09/17 10:42:09;;;;;;;;;;;33.90;68.20;;;;;;5015157;28;20384;-66
2023/09/17 10:44:36;;;;;;;;;;;34.10;67.30;;;;;;5011403;28;19919;-68
2023/09/17 10:47:03;;;;;;;;;;;34.30;67.30;;;;;;5011671;28;19913;-66
2023/09/17 10:49:31;;;;;;;;;;;34.60;67.90;;;;;;5006049;28;20004;-69
2023/09/17 10:51:57;;;;;;;;;;;34.80;67.10;;;;;;5011341;28;19909;-71
2023/09/17 10:54:22;;;;;;;;;;;35.10;68.10;;;;;;5012912;28;19913;-70
2023/09/17 10:56:48;;;;;;;;;;;35.40;67.70;;;;;;5012099;28;19982;-71
2023/09/17 10:59:14;;;;;;;;;;;35.70;67.00;;;;;;5005970;28;20060;-71
2023/09/17 11:01:41;;;;;;;;;;;35.90;65.10;;;;;;5010854;28;19916;-70
2023/09/17 11:04:13;;;;;;;;;;;36.00;64.70;;;;;;5011024;28;19929;-69
2023/09/17 11:06:39;;;;;;;;;;;36.30;64.90;;;;;;5011052;28;20011;-70
2023/09/17 11:09:05;;;;;;;;;;;36.40;62.80;;;;;;5011487;28;19914;-72
2023/09/17 11:11:32;;;;;;;;;;;36.60;62.50;;;;;;5012138;28;19909;-70
2023/09/17 11:13:57;;;;;;;;;;;36.80;61.90;;;;;;5012275;28;19917;-69
2023/09/17 11:16:24;;;;;;;;;;;37.00;61.40;;;;;;5011304;28;20292;-70
2023/09/17 11:19:08;;;;;;;;;;;37.20;58.20;;;;;;5012468;28;19921;-70
2023/09/17 11:21:35;;;;;;;;;;;37.30;57.70;;;;;;5026887;28;20011;-71
2023/09/17 11:24:05;;;;;;;;;;;37.20;57.10;;;;;;5014541;28;19952;-70
2023/09/17 11:26:31;;;;;;;;;;;37.20;54.30;;;;;;5014391;28;20170;-71
2023/09/17 11:28:57;;;;;;;;;;;37.30;55.70;;;;;;5013980;28;19944;-71
2023/09/17 11:31:26;;;;;;;;;;;37.40;53.90;;;;;;5013925;28;20388;-70
2023/09/17 11:33:51;;;;;;;;;;;37.40;51.60;;;;;;5015248;28;19921;-71
2023/09/17 11:36:17;;;;;;;;;;;37.40;51.60;;;;;;5010312;28;19914;-71
2023/09/17 11:38:50;;;;;;;;;;;37.40;49.10;;;;;;5012600;28;19971;-71
2023/09/17 11:41:16;;;;;;;;;;;37.30;48.40;;;;;;5014594;28;19914;-71
2023/09/17 11:43:46;;;;;;;;;;;37.30;49.40;;;;;;5016781;28;20001;-69
2023/09/17 11:46:12;;;;;;;;;;;37.30;50.20;;;;;;5012849;28;19909;-70
2023/09/17 11:48:38;;;;;;;;;;;37.30;48.60;;;;;;5010495;28;19960;-71
2023/09/17 11:51:16;;;;;;;;;;;37.30;47.20;;;;;;5012158;28;20285;-70
2023/09/17 11:53:49;;;;;;;;;;;37.30;45.80;;;;;;5011329;28;20016;-70
2023/09/17 11:56:15;;;;;;;;;;;37.30;46.30;;;;;;5014948;28;20402;-70
2023/09/17 11:58:42;;;;;;;;;;;37.30;44.90;;;;;;5014790;28;20012;-70
2023/09/17 12:01:07;;;;;;;;;;;37.30;44.80;;;;;;5014099;28;19918;-70
2023/09/17 12:03:33;;;;;;;;;;;37.20;44.30;;;;;;5014982;28;19972;-69
2023/09/17 12:05:59;;;;;;;;;;;37.20;45.80;;;;;;5014607;28;19913;-70
2023/09/17 12:08:24;;;;;;;;;;;37.30;44.20;;;;;;5013465;28;20369;-69
2023/09/17 12:10:53;;;;;;;;;;;37.30;42.20;;;;;;5012751;28;19929;-70
2023/09/17 12:13:19;;;;;;;;;;;37.30;43.00;;;;;;5014807;28;19917;-68
2023/09/17 12:15:45;;;;;;;;;;;37.40;41.90;;;;;;5012099;28;19913;-69
2023/09/17 12:18:10;;;;;;;;;;;37.50;41.60;;;;;;5014243;28;20293;-69
2023/09/17 12:20:51;;;;;;;;;;;37.40;39.90;;;;;;5014554;28;19928;-68
2023/09/17 12:23:24;;;;;;;;;;;37.30;39.20;;;;;;5011540;28;19925;-69
2023/09/17 12:25:49;;;;;;;;;;;37.20;39.60;;;;;;5012735;28;20376;-69
2023/09/17 12:28:15;;;;;;;;;;;37.20;40.50;;;;;;5012944;28;19925;-69
2023/09/17 12:31:03;;;;;;;;;;;37.40;39.90;;;;;;5015814;28;19991;-69
2023/09/17 12:33:28;;;;;;;;;;;37.40;39.40;;;;;;5012970;28;19921;-68
2023/09/17 12:35:56;;;;;;;;;;;37.40;39.00;;;;;;5012620;28;19916;-69
2023/09/17 12:38:21;;;;;;;;;;;37.40;39.60;;;;;;5014043;28;20007;-69
2023/09/17 12:40:47;;;;;;;;;;;37.50;39.40;;;;;;5012719;28;19975;-70
2023/09/17 12:43:12;;;;;;;;;;;37.50;36.80;;;;;;5016243;28;19929;-69
2023/09/17 12:45:38;;;;;;;;;;;37.40;37.20;;;;;;5014149;28;20277;-69
2023/09/17 12:48:04;;;;;;;;;;;37.30;36.60;;;;;;5013276;28;20276;-69
2023/09/17 12:50:29;;;;;;;;;;;37.30;36.90;;;;;;5013816;28;19967;-69
2023/09/17 12:52:55;;;;;;;;;;;37.30;36.30;;;;;;5013754;28;19921;-69
2023/09/17 12:55:21;;;;;;;;;;;37.30;36.20;;;;;;5012350;28;20522;-69
2023/09/17 12:57:49;;;;;;;;;;;37.20;36.30;;;;;;5013599;28;19918;-70
2023/09/17 13:00:15;;;;;;;;;;;37.20;36.80;;;;;;5013424;28;19920;-69
2023/09/17 13:02:40;;;;;;;;;;;37.30;36.30;;;;;;5013262;28;20012;-69
2023/09/17 13:05:07;;;;;;;;;;;37.30;36.50;;;;;;5012032;28;19910;-69
2023/09/17 13:07:35;;;;;;;;;;;37.30;35.30;;;;;;5013321;28;19952;-69
2023/09/17 13:10:01;;;;;;;;;;;37.20;35.60;;;;;;5013258;28;19916;-68
2023/09/17 13:12:27;;;;;;;;;;;37.10;35.80;;;;;;5011957;28;20648;-68
2023/09/17 13:14:53;;;;;;;;;;;37.20;36.20;;;;;;5013163;28;19980;-69
2023/09/17 13:17:19;;;;;;;;;;;37.20;35.60;;;;;;5013171;28;20258;-68
2023/09/17 13:19:45;;;;;;;;;;;37.00;35.90;;;;;;5011409;28;20100;-68
2023/09/17 13:22:12;;;;;;;;;;;37.00;35.70;;;;;;5012973;28;20455;-68
2023/09/17 13:24:39;;;;;;;;;;;36.80;35.70;;;;;;5013193;28;19924;-69
2023/09/17 13:27:06;;;;;;;;;;;36.60;35.60;;;;;;5012261;28;19987;-67
2023/09/17 13:29:36;;;;;;;;;;;36.30;35.50;;;;;;5012964;28;19960;-68
2023/09/17 13:32:02;;;;;;;;;;;36.00;36.10;;;;;;5010623;28;19913;-68
2023/09/17 13:34:29;;;;;;;;;;;35.70;36.60;;;;;;5012771;28;19923;-69
2023/09/17 13:36:56;;;;;;;;;;;35.60;37.10;;;;;;5010584;28;19913;-69
2023/09/17 13:39:22;;;;;;;;;;;35.40;37.10;;;;;;5011497;28;19928;-69
2023/09/17 13:41:47;;;;;;;;;;;35.30;37.00;;;;;;5012489;28;19917;-68
2023/09/17 13:44:13;;;;;;;;;;;35.20;37.50;;;;;;5011356;28;19917;-68
2023/09/17 13:46:44;;;;;;;;;;;35.00;37.60;;;;;;5012331;28;19924;-69
2023/09/17 13:49:10;;;;;;;;;;;34.90;37.80;;;;;;5012932;28;20024;-69
2023/09/17 13:51:35;;;;;;;;;;;34.80;37.70;;;;;;5011598;28;19995;-69
2023/09/17 13:54:01;;;;;;;;;;;34.70;38.00;;;;;;5011272;28;19918;-71
2023/09/17 13:56:26;;;;;;;;;;;34.50;38.20;;;;;;5011980;28;19918;-69
2023/09/17 13:58:53;;;;;;;;;;;34.40;38.20;;;;;;5012996;28;19952;-68
2023/09/17 14:01:19;;;;;;;;;;;34.30;38.40;;;;;;5012203;28;19968;-69
2023/09/17 14:03:44;;;;;;;;;;;34.20;38.50;;;;;;5012988;28;20365;-70
2023/09/17 14:06:10;;;;;;;;;;;34.00;38.60;;;;;;5010673;28;20404;-68
2023/09/17 14:08:35;;;;;;;;;;;33.90;39.00;;;;;;5010807;28;19921;-68
2023/09/17 14:11:02;;;;;;;;;;;33.80;39.20;;;;;;5012326;28;19910;-67
2023/09/17 14:13:28;;;;;;;;;;;33.80;39.50;;;;;;5010256;28;20315;-68